Zimmer, Louisiana
Current Conditions -  °F | °C
As of 4:53 PM on Monday 22 Dec 2014 (Local Time) from KESF Reporting Station
Clear Clear  
Wind Chill: 69°   Ceiling: Unl
Heat Index: 69°   Visibility: 10mi
Dew Point: 61°   Wind: 6mph
Humidity: 75%   Direction: 180°S
Pressure: 29.6"   Gusts: NA
Location:  31.0386°N, 91.9871°W
Report Text: KESF 222253Z AUTO 18005KT 10SM CLR 21/16 A2960 RMK AO2 SLP021 T02060161
Loading
Personal Weather Stations






























Interactive Weather Map New forecast layout! Learn more

10-Day Weather Forecast

Advertisements
Track Severe Weather on mobile